Time;durP1;ratioP1;P1;durP2;ratioP2;P2;SDS_P1;SDS_P2;PMS_P1;PMS_P2;Temp;Humidity;BMP_temperature;BMP_pressure;BME280_temperature;BME280_humidity;BME280_pressure;Samples;Min_cycle;Max_cycle;Signal;HPM_P1;HPM_P2
2022/09/02 00:01:58;;;;;;;;;;;20.30;63.30;;;;;;5039503;28;19936;-78
2022/09/02 00:04:25;;;;;;;;;;;20.20;63.40;;;;;;5039222;28;19932;-76
2022/09/02 00:06:53;;;;;;;;;;;20.20;63.60;;;;;;5038519;28;19929;-77
2022/09/02 00:09:23;;;;;;;;;;;20.20;63.60;;;;;;5034221;28;19933;-77
2022/09/02 00:11:51;;;;;;;;;;;20.20;63.70;;;;;;5040376;28;19967;-76
2022/09/02 00:14:19;;;;;;;;;;;20.10;63.60;;;;;;5040597;28;19929;-78
2022/09/02 00:16:50;;;;;;;;;;;20.10;63.80;;;;;;5040157;28;19928;-77
2022/09/02 00:19:17;;;;;;;;;;;20.10;64.00;;;;;;5038815;28;20040;-76
2022/09/02 00:21:44;;;;;;;;;;;20.00;64.00;;;;;;5042844;28;19928;-75
2022/09/02 00:24:11;;;;;;;;;;;20.00;64.00;;;;;;5037885;28;20067;-76
2022/09/02 00:26:38;;;;;;;;;;;20.00;64.10;;;;;;5041235;28;20348;-77
2022/09/02 00:29:06;;;;;;;;;;;20.00;64.10;;;;;;5039987;28;19929;-74
2022/09/02 00:31:35;;;;;;;;;;;19.90;64.30;;;;;;5039595;28;20352;-77
2022/09/02 00:34:02;;;;;;;;;;;19.90;64.40;;;;;;5038958;28;19928;-80
2022/09/02 00:36:28;;;;;;;;;;;19.80;64.40;;;;;;5039471;28;19929;-77
2022/09/02 00:38:55;;;;;;;;;;;19.80;64.40;;;;;;5034410;28;19936;-76
2022/09/02 00:41:23;;;;;;;;;;;19.80;64.50;;;;;;5037792;28;19933;-75
2022/09/02 00:43:51;;;;;;;;;;;19.80;64.60;;;;;;5040128;28;19936;-77
2022/09/02 00:46:20;;;;;;;;;;;19.70;64.50;;;;;;5037440;28;19959;-75
2022/09/02 00:48:49;;;;;;;;;;;19.70;64.60;;;;;;5037739;28;20385;-77
2022/09/02 00:51:16;;;;;;;;;;;19.70;64.60;;;;;;5037389;28;19928;-77
2022/09/02 00:53:44;;;;;;;;;;;19.60;64.60;;;;;;5038029;28;19932;-76
2022/09/02 00:56:13;;;;;;;;;;;19.60;64.60;;;;;;5037929;28;19936;-79
2022/09/02 00:58:41;;;;;;;;;;;19.60;64.80;;;;;;5038110;28;19932;-77
2022/09/02 01:01:10;;;;;;;;;;;19.50;64.90;;;;;;5039173;28;19935;-77
2022/09/02 01:03:39;;;;;;;;;;;19.50;64.90;;;;;;5039130;28;20016;-74
2022/09/02 01:06:06;;;;;;;;;;;19.50;64.90;;;;;;5038054;28;20023;-79
2022/09/02 01:08:34;;;;;;;;;;;19.40;65.00;;;;;;5034238;28;19933;-76
2022/09/02 01:11:01;;;;;;;;;;;19.40;65.10;;;;;;5037265;28;19940;-75
2022/09/02 01:13:30;;;;;;;;;;;19.40;65.10;;;;;;5043028;28;19933;-76
2022/09/02 01:15:58;;;;;;;;;;;19.40;65.30;;;;;;5039620;28;19964;-77
2022/09/02 01:18:27;;;;;;;;;;;19.30;65.30;;;;;;5040520;28;19978;-76
2022/09/02 01:20:56;;;;;;;;;;;19.30;65.40;;;;;;5041501;28;19929;-78
2022/09/02 01:23:24;;;;;;;;;;;19.30;65.40;;;;;;5043804;28;19935;-77
2022/09/02 01:25:50;;;;;;;;;;;19.20;65.50;;;;;;5041533;28;19928;-79
2022/09/02 01:28:18;;;;;;;;;;;19.20;65.50;;;;;;5041033;28;20481;-76
2022/09/02 01:30:46;;;;;;;;;;;19.20;65.50;;;;;;5040119;28;19936;-76
2022/09/02 01:33:13;;;;;;;;;;;19.10;65.70;;;;;;5041180;28;19940;-72
2022/09/02 01:35:41;;;;;;;;;;;19.10;65.70;;;;;;5037544;28;20393;-76
2022/09/02 01:38:08;;;;;;;;;;;19.10;65.90;;;;;;5042535;28;19928;-74
2022/09/02 01:40:36;;;;;;;;;;;19.10;65.80;;;;;;5039183;28;19935;-77
2022/09/02 01:43:06;;;;;;;;;;;19.10;65.80;;;;;;5042385;28;19928;-76
2022/09/02 01:45:33;;;;;;;;;;;19.00;65.80;;;;;;5038358;28;19935;-75
2022/09/02 01:47:59;;;;;;;;;;;19.00;65.90;;;;;;5041506;28;19928;-79
2022/09/02 01:50:26;;;;;;;;;;;19.00;66.00;;;;;;5041849;28;20006;-79
2022/09/02 01:52:52;;;;;;;;;;;19.00;66.00;;;;;;5042709;28;19975;-78
2022/09/02 01:55:19;;;;;;;;;;;18.90;65.90;;;;;;5040893;28;19936;-77
2022/09/02 01:57:47;;;;;;;;;;;18.90;66.00;;;;;;5042174;28;19932;-74
2022/09/02 02:00:15;;;;;;;;;;;18.90;66.00;;;;;;5039109;28;19935;-76
2022/09/02 02:02:41;;;;;;;;;;;18.90;66.10;;;;;;5041265;28;20327;-77
2022/09/02 02:05:08;;;;;;;;;;;18.80;66.10;;;;;;5042424;28;20759;-77
2022/09/02 02:07:35;;;;;;;;;;;18.90;66.40;;;;;;5041927;28;19929;-77
2022/09/02 02:10:02;;;;;;;;;;;18.80;66.40;;;;;;5038521;28;19930;-76
2022/09/02 02:12:28;;;;;;;;;;;18.80;66.50;;;;;;5041264;28;19929;-76
2022/09/02 02:14:56;;;;;;;;;;;18.70;66.50;;;;;;5042289;28;19931;-76
2022/09/02 02:17:23;;;;;;;;;;;18.70;66.40;;;;;;5042138;28;19935;-77
2022/09/02 02:19:49;;;;;;;;;;;18.70;66.40;;;;;;5042344;28;19963;-77
2022/09/02 02:22:16;;;;;;;;;;;18.70;66.90;;;;;;5040974;28;19933;-75
2022/09/02 02:24:43;;;;;;;;;;;18.60;66.50;;;;;;5042490;28;19929;-73
2022/09/02 02:27:10;;;;;;;;;;;18.60;66.30;;;;;;5043009;28;21589;-75
2022/09/02 02:29:36;;;;;;;;;;;18.60;66.50;;;;;;5038450;28;19936;-74
2022/09/02 02:32:06;;;;;;;;;;;18.60;66.60;;;;;;5041884;28;19928;-76
2022/09/02 02:34:33;;;;;;;;;;;18.50;66.80;;;;;;5041529;28;19932;-75
2022/09/02 02:36:59;;;;;;;;;;;18.50;66.70;;;;;;5038482;28;19929;-77
2022/09/02 02:39:26;;;;;;;;;;;18.50;66.70;;;;;;5036365;28;19928;-76
2022/09/02 02:41:53;;;;;;;;;;;18.50;66.90;;;;;;5039802;28;19933;-78
2022/09/02 02:44:19;;;;;;;;;;;18.50;66.90;;;;;;5040188;28;19928;-75
2022/09/02 02:46:46;;;;;;;;;;;18.40;66.80;;;;;;5038030;28;19932;-75
2022/09/02 02:49:14;;;;;;;;;;;18.40;66.80;;;;;;5039098;28;20722;-75
2022/09/02 02:51:41;;;;;;;;;;;18.40;67.00;;;;;;5040561;28;20293;-77
2022/09/02 02:54:09;;;;;;;;;;;18.30;67.00;;;;;;5040352;28;19940;-80
2022/09/02 02:56:35;;;;;;;;;;;18.30;67.00;;;;;;5040788;28;20023;-77
2022/09/02 02:59:02;;;;;;;;;;;18.30;67.10;;;;;;5038420;28;19936;-76
2022/09/02 03:01:29;;;;;;;;;;;18.30;67.20;;;;;;5036634;28;19929;-76
2022/09/02 03:03:55;;;;;;;;;;;18.30;67.20;;;;;;5040773;28;20002;-74
2022/09/02 03:06:23;;;;;;;;;;;18.20;67.30;;;;;;5041230;28;19932;-77
2022/09/02 03:08:52;;;;;;;;;;;18.20;67.30;;;;;;5038047;28;20068;-77
2022/09/02 03:11:21;;;;;;;;;;;18.20;67.30;;;;;;5040912;28;19952;-80
2022/09/02 03:13:48;;;;;;;;;;;18.20;67.40;;;;;;5041327;28;19952;-75
2022/09/02 03:16:14;;;;;;;;;;;18.20;67.40;;;;;;5038546;28;20284;-75
2022/09/02 03:18:41;;;;;;;;;;;18.10;67.30;;;;;;5037025;28;19939;-76
2022/09/02 03:21:09;;;;;;;;;;;18.10;67.20;;;;;;5041187;28;20300;-75
2022/09/02 03:23:37;;;;;;;;;;;18.10;67.30;;;;;;5040326;28;19935;-76
2022/09/02 03:26:08;;;;;;;;;;;18.10;67.40;;;;;;5040406;28;20007;-77
2022/09/02 03:28:34;;;;;;;;;;;18.00;67.40;;;;;;5038535;28;20031;-72
2022/09/02 03:31:01;;;;;;;;;;;18.00;67.30;;;;;;5039996;28;20718;-75
2022/09/02 03:33:28;;;;;;;;;;;18.00;67.40;;;;;;5039320;28;19932;-78
2022/09/02 03:35:54;;;;;;;;;;;18.00;67.60;;;;;;5039413;28;19935;-77
2022/09/02 03:38:21;;;;;;;;;;;18.00;67.60;;;;;;5036079;28;19929;-79
2022/09/02 03:40:49;;;;;;;;;;;17.90;67.60;;;;;;5037921;28;19925;-75
2022/09/02 03:43:16;;;;;;;;;;;17.90;67.50;;;;;;5038725;28;19933;-72
2022/09/02 03:45:42;;;;;;;;;;;17.90;67.60;;;;;;5032384;28;20591;-76
2022/09/02 03:48:11;;;;;;;;;;;17.90;67.60;;;;;;5039587;28;19928;-79
2022/09/02 03:50:38;;;;;;;;;;;17.80;67.70;;;;;;5038376;28;19968;-77
2022/09/02 03:53:05;;;;;;;;;;;17.90;67.70;;;;;;5041690;28;19936;-76
2022/09/02 03:55:32;;;;;;;;;;;17.80;67.70;;;;;;5038673;28;20484;-77
2022/09/02 03:58:00;;;;;;;;;;;17.80;67.80;;;;;;5038277;28;20657;-77
2022/09/02 04:00:29;;;;;;;;;;;17.70;67.80;;;;;;5037507;28;19963;-75
2022/09/02 04:02:55;;;;;;;;;;;17.70;67.70;;;;;;5037767;28;20375;-76
2022/09/02 04:05:22;;;;;;;;;;;17.70;67.80;;;;;;5038810;28;19932;-76
2022/09/02 04:07:51;;;;;;;;;;;17.70;67.90;;;;;;5037645;28;20683;-78
2022/09/02 04:10:18;;;;;;;;;;;17.70;67.90;;;;;;5035156;28;20022;-75
2022/09/02 04:12:44;;;;;;;;;;;17.70;68.00;;;;;;5038583;28;19935;-78
2022/09/02 04:15:13;;;;;;;;;;;17.60;68.00;;;;;;5037583;28;19966;-76
2022/09/02 04:17:40;;;;;;;;;;;17.60;67.80;;;;;;5037288;28;20047;-79
2022/09/02 04:20:08;;;;;;;;;;;17.60;67.90;;;;;;5037342;28;19928;-76
2022/09/02 04:22:35;;;;;;;;;;;17.60;67.90;;;;;;5038300;28;20004;-77
2022/09/02 04:25:02;;;;;;;;;;;17.50;68.10;;;;;;5035687;28;19994;-74
2022/09/02 04:27:29;;;;;;;;;;;17.50;68.10;;;;;;5037814;28;19932;-76
2022/09/02 04:29:56;;;;;;;;;;;17.50;68.20;;;;;;5037306;28;19929;-75
2022/09/02 04:32:25;;;;;;;;;;;17.50;68.30;;;;;;5038697;28;19928;-77
2022/09/02 04:34:51;;;;;;;;;;;17.50;68.50;;;;;;5037494;28;19933;-75
2022/09/02 04:37:18;;;;;;;;;;;17.40;68.30;;;;;;5037686;28;19933;-77
2022/09/02 04:39:44;;;;;;;;;;;17.40;68.30;;;;;;5036159;28;20371;-74
2022/09/02 04:42:11;;;;;;;;;;;17.40;68.40;;;;;;5038026;28;20470;-76
2022/09/02 04:44:38;;;;;;;;;;;17.40;68.20;;;;;;5039792;28;19932;-76
2022/09/02 04:47:04;;;;;;;;;;;17.40;68.30;;;;;;5039987;28;19929;-75
2022/09/02 04:49:33;;;;;;;;;;;17.30;68.50;;;;;;5043650;28;19925;-76
2022/09/02 04:52:00;;;;;;;;;;;17.30;68.40;;;;;;5043152;28;19928;-76
2022/09/02 04:54:27;;;;;;;;;;;17.30;68.50;;;;;;5041688;28;19929;-76
2022/09/02 04:56:53;;;;;;;;;;;17.30;68.50;;;;;;5043126;28;19978;-77
2022/09/02 04:59:20;;;;;;;;;;;17.30;68.60;;;;;;5041706;28;20013;-77
2022/09/02 05:01:48;;;;;;;;;;;17.20;68.70;;;;;;5044034;28;19936;-75
2022/09/02 05:04:15;;;;;;;;;;;17.20;68.50;;;;;;5047503;28;19928;-74
2022/09/02 05:06:43;;;;;;;;;;;17.20;68.60;;;;;;5041458;28;19932;-78
2022/09/02 05:09:09;;;;;;;;;;;17.20;68.60;;;;;;5039808;28;19928;-76
2022/09/02 05:11:37;;;;;;;;;;;17.20;68.70;;;;;;5041435;28;19929;-77
2022/09/02 05:14:05;;;;;;;;;;;17.20;68.60;;;;;;5042165;28;19928;-77
2022/09/02 05:16:35;;;;;;;;;;;17.10;68.80;;;;;;5039403;28;19928;-77
2022/09/02 05:19:03;;;;;;;;;;;17.10;68.80;;;;;;5039477;28;20219;-74
2022/09/02 05:21:30;;;;;;;;;;;17.10;68.70;;;;;;5042699;28;20011;-75
2022/09/02 05:23:58;;;;;;;;;;;17.00;68.60;;;;;;5041214;28;19983;-76
2022/09/02 05:26:25;;;;;;;;;;;17.10;68.80;;;;;;5043312;28;19982;-74
2022/09/02 05:28:52;;;;;;;;;;;17.00;68.60;;;;;;5039291;28;19933;-74
2022/09/02 05:31:20;;;;;;;;;;;16.90;68.00;;;;;;5039912;28;19928;-76
2022/09/02 05:33:47;;;;;;;;;;;16.70;69.90;;;;;;5044164;28;19935;-75
2022/09/02 05:36:14;;;;;;;;;;;16.50;70.50;;;;;;5042053;28;20038;-76
2022/09/02 05:38:41;;;;;;;;;;;16.50;70.80;;;;;;5042810;28;20008;-77
2022/09/02 05:41:10;;;;;;;;;;;16.50;70.90;;;;;;5042549;28;20457;-77
2022/09/02 05:43:37;;;;;;;;;;;16.50;70.70;;;;;;5037797;28;19940;-76
2022/09/02 05:46:06;;;;;;;;;;;16.50;70.30;;;;;;5040539;28;19936;-77
2022/09/02 05:51:17;;;;;;;;;;;16.60;70.10;;;;;;5042464;28;19959;-75
2022/09/02 05:53:44;;;;;;;;;;;16.60;70.00;;;;;;5042712;28;19936;-76
2022/09/02 05:56:12;;;;;;;;;;;16.60;69.80;;;;;;5043223;28;19928;-75
2022/09/02 05:58:38;;;;;;;;;;;16.60;69.80;;;;;;5041283;28;19990;-77
2022/09/02 06:01:07;;;;;;;;;;;16.60;70.00;;;;;;5040725;28;19975;-75
2022/09/02 06:03:33;;;;;;;;;;;16.60;69.80;;;;;;5043950;28;19936;-75
2022/09/02 06:06:00;;;;;;;;;;;16.60;69.80;;;;;;5037390;28;20404;-76
2022/09/02 06:08:26;;;;;;;;;;;16.60;69.80;;;;;;5040607;28;19929;-74
2022/09/02 06:10:53;;;;;;;;;;;16.60;70.20;;;;;;5041348;28;19933;-76
2022/09/02 06:13:21;;;;;;;;;;;16.50;70.50;;;;;;5042159;28;19933;-76
2022/09/02 06:15:47;;;;;;;;;;;16.60;70.90;;;;;;5039784;28;19929;-78
2022/09/02 06:18:14;;;;;;;;;;;16.60;71.00;;;;;;5039059;28;19933;-76
2022/09/02 06:20:41;;;;;;;;;;;16.60;70.90;;;;;;5042834;28;19936;-76
2022/09/02 06:23:08;;;;;;;;;;;16.60;70.70;;;;;;5041771;28;20411;-75
2022/09/02 06:25:35;;;;;;;;;;;16.60;70.60;;;;;;5042051;28;19936;-74
2022/09/02 06:28:02;;;;;;;;;;;16.70;70.50;;;;;;5040664;28;19932;-75
2022/09/02 06:30:30;;;;;;;;;;;16.70;70.40;;;;;;5039699;28;20525;-76
2022/09/02 06:32:57;;;;;;;;;;;16.70;70.20;;;;;;5040372;28;19935;-74
2022/09/02 06:35:24;;;;;;;;;;;16.70;70.10;;;;;;5041557;28;20099;-74
2022/09/02 06:37:51;;;;;;;;;;;16.80;70.10;;;;;;5038479;28;19944;-77
2022/09/02 06:40:18;;;;;;;;;;;16.70;69.90;;;;;;5039511;28;20636;-76
2022/09/02 06:42:44;;;;;;;;;;;16.80;70.00;;;;;;5041852;28;20391;-78
2022/09/02 06:45:11;;;;;;;;;;;16.80;69.80;;;;;;5039158;28;19925;-75
2022/09/02 06:47:39;;;;;;;;;;;16.80;69.60;;;;;;5040404;28;19974;-78
2022/09/02 06:50:06;;;;;;;;;;;16.80;69.60;;;;;;5038956;28;19932;-76
2022/09/02 06:52:33;;;;;;;;;;;16.80;69.50;;;;;;5040606;28;19933;-76
2022/09/02 06:54:59;;;;;;;;;;;16.80;69.40;;;;;;5039226;28;19946;-75
2022/09/02 06:57:26;;;;;;;;;;;16.90;69.30;;;;;;5040478;28;20139;-75
2022/09/02 06:59:52;;;;;;;;;;;16.80;69.30;;;;;;5039811;28;19932;-77
2022/09/02 07:02:19;;;;;;;;;;;16.90;69.10;;;;;;5038191;28;20555;-76
2022/09/02 07:07:31;;;;;;;;;;;16.90;69.10;;;;;;5042080;28;19940;-75
2022/09/02 07:09:57;;;;;;;;;;;16.90;69.00;;;;;;5037937;28;19939;-76
2022/09/02 07:12:25;;;;;;;;;;;16.90;68.90;;;;;;5040063;28;19936;-74
2022/09/02 07:14:52;;;;;;;;;;;16.90;69.00;;;;;;5037628;28;19954;-75
2022/09/02 07:17:20;;;;;;;;;;;16.90;68.90;;;;;;5039796;28;19944;-74
2022/09/02 07:19:48;;;;;;;;;;;16.90;68.90;;;;;;5040304;28;19951;-76
2022/09/02 07:22:15;;;;;;;;;;;16.90;68.90;;;;;;5039706;28;19937;-74
2022/09/02 07:24:41;;;;;;;;;;;17.00;68.80;;;;;;5039121;28;19925;-78
2022/09/02 07:27:08;;;;;;;;;;;17.00;68.80;;;;;;5040327;28;19929;-77
2022/09/02 07:29:35;;;;;;;;;;;17.00;68.80;;;;;;5039321;28;20292;-74
2022/09/02 07:32:02;;;;;;;;;;;17.00;68.70;;;;;;5037104;28;20298;-76
2022/09/02 07:34:29;;;;;;;;;;;17.00;68.60;;;;;;5033683;28;19972;-76
2022/09/02 07:36:57;;;;;;;;;;;17.10;68.60;;;;;;5040904;28;19968;-76
2022/09/02 07:39:23;;;;;;;;;;;17.10;68.60;;;;;;5037320;28;19932;-77
2022/09/02 07:41:51;;;;;;;;;;;17.10;68.60;;;;;;5039417;28;19979;-77
2022/09/02 07:44:18;;;;;;;;;;;17.10;68.40;;;;;;5040889;28;19932;-76
2022/09/02 07:46:45;;;;;;;;;;;17.10;68.30;;;;;;5035770;28;19933;-75
2022/09/02 07:49:12;;;;;;;;;;;17.20;68.30;;;;;;5036696;28;19936;-78
2022/09/02 07:51:40;;;;;;;;;;;17.20;68.20;;;;;;5040707;28;19933;-76
2022/09/02 07:54:09;;;;;;;;;;;17.20;68.20;;;;;;5038321;28;19982;-76
2022/09/02 07:56:36;;;;;;;;;;;17.20;68.10;;;;;;5037066;28;19936;-75
2022/09/02 07:59:03;;;;;;;;;;;17.20;68.00;;;;;;5039541;28;19936;-75
2022/09/02 08:01:29;;;;;;;;;;;17.20;68.00;;;;;;5037289;28;19928;-75
2022/09/02 08:03:56;;;;;;;;;;;17.30;68.00;;;;;;5039529;28;19933;-76
2022/09/02 08:06:25;;;;;;;;;;;17.30;67.80;;;;;;5038870;28;19929;-79
2022/09/02 08:08:52;;;;;;;;;;;17.30;67.70;;;;;;5040363;28;19929;-75
2022/09/02 08:11:21;;;;;;;;;;;17.30;67.70;;;;;;5039760;28;19932;-75
2022/09/02 08:13:47;;;;;;;;;;;17.40;67.70;;;;;;5040355;28;20287;-77
2022/09/02 08:16:14;;;;;;;;;;;17.40;67.60;;;;;;5035927;28;19940;-74
2022/09/02 08:18:41;;;;;;;;;;;17.40;67.60;;;;;;5036694;28;19932;-76
2022/09/02 08:21:08;;;;;;;;;;;17.50;67.70;;;;;;5037636;28;20594;-75
2022/09/02 08:23:35;;;;;;;;;;;17.50;67.40;;;;;;5037744;28;20768;-75
2022/09/02 08:26:02;;;;;;;;;;;17.50;67.20;;;;;;5040138;28;20003;-76
2022/09/02 08:28:31;;;;;;;;;;;17.50;67.00;;;;;;5041281;28;19929;-75
2022/09/02 08:30:58;;;;;;;;;;;17.50;67.00;;;;;;5040726;28;19928;-74
2022/09/02 08:33:24;;;;;;;;;;;17.60;67.00;;;;;;5041350;28;19925;-76
2022/09/02 08:35:51;;;;;;;;;;;17.60;66.70;;;;;;5041516;28;20794;-75
2022/09/02 08:38:17;;;;;;;;;;;17.70;66.50;;;;;;5035100;28;19929;-73
2022/09/02 08:40:44;;;;;;;;;;;17.70;66.40;;;;;;5037117;28;19936;-76
2022/09/02 08:43:20;;;;;;;;;;;17.80;66.50;;;;;;5036662;28;20483;-75
2022/09/02 08:45:49;;;;;;;;;;;17.80;66.50;;;;;;5031801;28;19933;-74
2022/09/02 08:48:20;;;;;;;;;;;17.90;66.20;;;;;;5033469;28;19929;-76
2022/09/02 08:50:48;;;;;;;;;;;17.90;66.00;;;;;;5035380;28;20027;-74
2022/09/02 08:53:18;;;;;;;;;;;18.00;65.70;;;;;;5034795;28;19932;-76
2022/09/02 08:55:46;;;;;;;;;;;18.00;65.50;;;;;;5030065;28;19933;-78
2022/09/02 08:58:16;;;;;;;;;;;18.10;65.30;;;;;;5034659;28;20704;-76
2022/09/02 09:00:44;;;;;;;;;;;18.20;65.20;;;;;;5035678;28;19933;-75
2022/09/02 09:03:18;;;;;;;;;;;18.20;64.90;;;;;;5038783;28;20676;-76
2022/09/02 09:05:46;;;;;;;;;;;18.30;64.90;;;;;;5038436;28;19936;-76
2022/09/02 09:08:15;;;;;;;;;;;18.40;64.30;;;;;;5035060;28;20418;-76
2022/09/02 09:10:46;;;;;;;;;;;18.40;64.40;;;;;;5031528;28;19932;-77
2022/09/02 09:13:21;;;;;;;;;;;18.50;64.10;;;;;;5031340;28;19933;-76
2022/09/02 09:15:52;;;;;;;;;;;18.50;63.80;;;;;;5032365;28;19932;-76
2022/09/02 09:18:24;;;;;;;;;;;18.60;63.80;;;;;;5033366;28;20232;-78
2022/09/02 09:20:50;;;;;;;;;;;18.70;63.60;;;;;;5032122;28;19940;-78
2022/09/02 09:23:25;;;;;;;;;;;18.70;64.00;;;;;;5035387;28;19937;-78
2022/09/02 09:25:55;;;;;;;;;;;18.80;62.80;;;;;;5033500;28;20427;-77
2022/09/02 09:28:21;;;;;;;;;;;18.90;62.80;;;;;;5032156;28;19956;-77
2022/09/02 09:30:48;;;;;;;;;;;18.90;62.60;;;;;;5032048;28;19932;-74
2022/09/02 09:33:16;;;;;;;;;;;19.00;62.30;;;;;;5036122;28;19972;-75
2022/09/02 09:35:51;;;;;;;;;;;19.10;61.80;;;;;;5039642;28;19933;-77
2022/09/02 09:38:28;;;;;;;;;;;19.10;61.50;;;;;;5044098;28;19991;-75
2022/09/02 09:41:09;;;;;;;;;;;19.20;61.40;;;;;;5041902;28;20553;-75
2022/09/02 09:43:36;;;;;;;;;;;19.30;61.50;;;;;;5044114;28;19929;-76
2022/09/02 09:46:19;;;;;;;;;;;19.30;60.80;;;;;;5041131;28;20164;-77
2022/09/02 09:48:50;;;;;;;;;;;19.40;60.60;;;;;;5038189;28;19944;-77
2022/09/02 09:51:18;;;;;;;;;;;19.50;60.30;;;;;;5040304;28;19940;-76
2022/09/02 09:53:44;;;;;;;;;;;19.60;60.00;;;;;;5035929;28;20052;-76
2022/09/02 09:56:25;;;;;;;;;;;19.60;59.90;;;;;;5037774;28;19929;-78
2022/09/02 09:58:51;;;;;;;;;;;19.60;59.60;;;;;;5038890;28;20720;-76
2022/09/02 10:01:20;;;;;;;;;;;19.80;59.60;;;;;;5037809;28;19940;-76
2022/09/02 10:03:49;;;;;;;;;;;19.80;59.30;;;;;;5039000;28;19960;-75
2022/09/02 10:06:21;;;;;;;;;;;19.90;59.30;;;;;;5038988;28;19939;-79
2022/09/02 10:08:52;;;;;;;;;;;20.00;59.00;;;;;;5039133;28;19951;-77
2022/09/02 10:11:23;;;;;;;;;;;20.00;58.70;;;;;;5039533;28;19929;-78
2022/09/02 10:13:50;;;;;;;;;;;20.10;58.40;;;;;;5038961;28;19936;-78
2022/09/02 10:16:26;;;;;;;;;;;20.20;58.20;;;;;;5039634;28;19933;-78
2022/09/02 10:18:54;;;;;;;;;;;20.30;58.00;;;;;;5038973;28;20643;-78
2022/09/02 10:21:29;;;;;;;;;;;20.40;58.20;;;;;;5040805;28;19936;-78
2022/09/02 10:24:03;;;;;;;;;;;20.40;58.00;;;;;;5037472;28;19929;-76
2022/09/02 10:26:36;;;;;;;;;;;20.50;57.60;;;;;;5037530;28;20559;-76
2022/09/02 10:29:27;;;;;;;;;;;20.60;57.50;;;;;;5038208;28;20304;-73
2022/09/02 10:32:00;;;;;;;;;;;20.60;57.30;;;;;;5037915;28;19944;-79
2022/09/02 10:34:30;;;;;;;;;;;20.70;56.80;;;;;;5036428;28;20351;-76
2022/09/02 10:37:07;;;;;;;;;;;20.80;56.90;;;;;;5038292;28;19974;-80
2022/09/02 10:39:39;;;;;;;;;;;20.90;56.40;;;;;;5038797;28;19937;-78
2022/09/02 10:42:10;;;;;;;;;;;20.90;56.10;;;;;;5039007;28;20040;-76
2022/09/02 10:44:44;;;;;;;;;;;21.00;56.10;;;;;;5037538;28;19979;-77
2022/09/02 10:47:16;;;;;;;;;;;21.10;56.40;;;;;;5035452;28;20312;-78
2022/09/02 10:49:58;;;;;;;;;;;21.20;56.40;;;;;;5038923;28;19933;-79
2022/09/02 10:52:34;;;;;;;;;;;21.30;56.30;;;;;;5038020;28;19976;-77
2022/09/02 10:55:07;;;;;;;;;;;21.30;55.70;;;;;;5039125;28;20593;-77
2022/09/02 10:57:35;;;;;;;;;;;21.40;55.40;;;;;;5036051;28;19928;-77
2022/09/02 11:00:05;;;;;;;;;;;21.50;55.10;;;;;;5033262;28;19929;-76
2022/09/02 11:02:35;;;;;;;;;;;21.50;55.30;;;;;;5038468;28;19933;-76
2022/09/02 11:05:03;;;;;;;;;;;21.60;55.40;;;;;;5036463;28;20318;-75
2022/09/02 11:07:36;;;;;;;;;;;21.70;55.00;;;;;;5037255;28;19933;-76
2022/09/02 11:10:05;;;;;;;;;;;21.80;55.10;;;;;;5036369;28;19982;-75
2022/09/02 11:12:34;;;;;;;;;;;21.80;55.50;;;;;;5037822;28;20688;-77
2022/09/02 11:15:04;;;;;;;;;;;21.90;54.80;;;;;;5035416;28;20403;-77
2022/09/02 11:17:36;;;;;;;;;;;21.90;53.90;;;;;;5038085;28;19958;-76
2022/09/02 11:20:06;;;;;;;;;;;22.00;54.10;;;;;;5040096;28;20542;-76
2022/09/02 11:22:38;;;;;;;;;;;22.10;53.60;;;;;;5038459;28;19935;-78
2022/09/02 11:25:07;;;;;;;;;;;22.20;53.00;;;;;;5040786;28;19933;-77
2022/09/02 11:27:37;;;;;;;;;;;22.30;53.20;;;;;;5041719;28;20446;-75
2022/09/02 11:30:05;;;;;;;;;;;22.30;53.10;;;;;;5041787;28;19940;-77
2022/09/02 11:32:34;;;;;;;;;;;22.40;53.60;;;;;;5042230;28;20771;-75
2022/09/02 11:35:05;;;;;;;;;;;22.40;52.20;;;;;;5038561;28;19932;-76
2022/09/02 11:37:34;;;;;;;;;;;22.50;51.80;;;;;;5034020;28;19998;-76
2022/09/02 11:40:04;;;;;;;;;;;22.60;51.80;;;;;;5037515;28;19936;-77
2022/09/02 11:42:39;;;;;;;;;;;22.60;53.50;;;;;;5038875;28;19932;-76
2022/09/02 11:45:16;;;;;;;;;;;22.70;52.20;;;;;;5039584;28;19936;-80
2022/09/02 11:48:01;;;;;;;;;;;22.70;51.50;;;;;;5040569;28;20470;-76
2022/09/02 11:50:37;;;;;;;;;;;22.80;50.80;;;;;;5041886;28;19932;-71
2022/09/02 11:53:12;;;;;;;;;;;22.90;52.50;;;;;;5042851;28;19932;-75
2022/09/02 11:55:41;;;;;;;;;;;23.00;51.20;;;;;;5038928;28;20577;-79
2022/09/02 11:58:08;;;;;;;;;;;23.00;50.40;;;;;;5039005;28;19936;-78
2022/09/02 12:00:36;;;;;;;;;;;23.10;49.50;;;;;;5039242;28;19935;-79
2022/09/02 12:03:14;;;;;;;;;;;23.20;50.00;;;;;;5038897;28;20027;-77
2022/09/02 12:05:45;;;;;;;;;;;23.20;50.10;;;;;;5044922;28;19932;-77
2022/09/02 12:08:14;;;;;;;;;;;23.30;50.50;;;;;;5041726;28;19936;-75
2022/09/02 12:11:00;;;;;;;;;;;23.30;49.70;;;;;;5040794;28;19929;-75
2022/09/02 12:13:32;;;;;;;;;;;23.40;49.20;;;;;;5037900;28;19933;-75
2022/09/02 12:16:14;;;;;;;;;;;23.40;48.60;;;;;;5035815;28;20427;-76
2022/09/02 12:18:43;;;;;;;;;;;23.50;49.50;;;;;;5036912;28;20022;-76
2022/09/02 12:21:13;;;;;;;;;;;23.60;49.40;;;;;;5040640;28;19933;-77
2022/09/02 12:23:58;;;;;;;;;;;23.70;49.60;;;;;;5041431;28;20263;-74
2022/09/02 12:26:28;;;;;;;;;;;23.70;50.30;;;;;;5041379;28;19982;-74
2022/09/02 12:29:10;;;;;;;;;;;23.80;50.00;;;;;;5043071;28;19933;-76
2022/09/02 12:31:39;;;;;;;;;;;23.80;48.40;;;;;;5041748;28;20433;-74
2022/09/02 12:34:21;;;;;;;;;;;23.90;49.40;;;;;;5040697;28;20392;-77
2022/09/02 12:36:50;;;;;;;;;;;23.90;48.20;;;;;;5042198;28;19965;-75
2022/09/02 12:39:35;;;;;;;;;;;24.00;47.70;;;;;;5040615;28;19933;-74
2022/09/02 12:42:14;;;;;;;;;;;24.00;47.10;;;;;;5043669;28;19986;-78
2022/09/02 12:44:44;;;;;;;;;;;24.00;47.00;;;;;;5039451;28;19928;-78
2022/09/02 12:47:14;;;;;;;;;;;24.10;48.20;;;;;;5040749;28;19932;-74
2022/09/02 12:49:44;;;;;;;;;;;24.20;48.40;;;;;;5039497;28;19929;-80
2022/09/02 12:52:12;;;;;;;;;;;24.20;48.50;;;;;;5033366;28;19936;-78
2022/09/02 12:54:46;;;;;;;;;;;24.30;48.60;;;;;;5039584;28;19955;-80
2022/09/02 12:57:16;;;;;;;;;;;24.30;48.20;;;;;;5040227;28;20680;-76
2022/09/02 12:59:43;;;;;;;;;;;24.40;47.10;;;;;;5037048;28;20735;-76
2022/09/02 13:02:15;;;;;;;;;;;24.40;46.70;;;;;;5039266;28;19929;-76
2022/09/02 13:04:46;;;;;;;;;;;24.50;46.50;;;;;;5043654;28;20015;-76
2022/09/02 13:07:31;;;;;;;;;;;24.50;47.90;;;;;;5041490;28;19932;-77
2022/09/02 13:10:11;;;;;;;;;;;24.50;47.60;;;;;;5038851;28;19952;-73
2022/09/02 13:12:50;;;;;;;;;;;24.50;48.00;;;;;;5042548;28;20016;-76
2022/09/02 13:15:26;;;;;;;;;;;24.60;47.10;;;;;;5042312;28;19940;-79
2022/09/02 13:18:16;;;;;;;;;;;24.70;46.10;;;;;;5033027;28;19929;-79
2022/09/02 13:21:01;;;;;;;;;;;24.70;48.00;;;;;;5040395;28;20026;-76
2022/09/02 13:23:48;;;;;;;;;;;24.70;46.20;;;;;;5033547;28;19990;-77
2022/09/02 13:26:36;;;;;;;;;;;24.80;45.90;;;;;;5041622;28;19933;-78
2022/09/02 13:29:16;;;;;;;;;;;24.90;45.60;;;;;;5039951;28;19981;-75
2022/09/02 13:31:59;;;;;;;;;;;24.90;45.60;;;;;;5042451;28;19932;-77
2022/09/02 13:34:25;;;;;;;;;;;25.00;46.20;;;;;;5041717;28;20022;-76
2022/09/02 13:36:52;;;;;;;;;;;25.00;45.50;;;;;;5041558;28;20735;-75
2022/09/02 13:39:19;;;;;;;;;;;25.10;46.60;;;;;;5033493;28;19944;-75
2022/09/02 13:41:48;;;;;;;;;;;25.10;45.70;;;;;;5040000;28;19932;-75
2022/09/02 13:44:22;;;;;;;;;;;25.10;45.30;;;;;;5039859;28;19940;-76
2022/09/02 13:46:50;;;;;;;;;;;25.20;45.30;;;;;;5039278;28;19929;-76
2022/09/02 13:49:18;;;;;;;;;;;25.30;47.80;;;;;;5041097;28;19933;-76
2022/09/02 13:51:46;;;;;;;;;;;25.30;45.90;;;;;;5040178;28;20037;-75
2022/09/02 13:54:12;;;;;;;;;;;25.40;45.60;;;;;;5037002;28;19982;-76
2022/09/02 13:56:39;;;;;;;;;;;25.40;44.10;;;;;;5039129;28;19929;-77
2022/09/02 13:59:05;;;;;;;;;;;25.50;44.90;;;;;;5040569;28;19929;-79
2022/09/02 14:01:35;;;;;;;;;;;25.50;44.50;;;;;;5039409;28;19936;-76
2022/09/02 14:04:03;;;;;;;;;;;25.50;44.70;;;;;;5039867;28;20821;-75
2022/09/02 14:06:32;;;;;;;;;;;25.60;45.20;;;;;;5039622;28;20394;-76
2022/09/02 14:09:00;;;;;;;;;;;25.60;46.20;;;;;;5040097;28;19929;-69
2022/09/02 14:11:27;;;;;;;;;;;25.70;44.30;;;;;;5039924;28;20531;-68
2022/09/02 14:13:54;;;;;;;;;;;25.70;44.70;;;;;;5041221;28;19933;-67
2022/09/02 14:16:25;;;;;;;;;;;25.80;45.90;;;;;;5038816;28;19929;-68
2022/09/02 14:19:06;;;;;;;;;;;25.80;45.20;;;;;;5041176;28;19928;-69
2022/09/02 14:21:34;;;;;;;;;;;25.90;43.40;;;;;;5040718;28;19937;-68
2022/09/02 14:24:01;;;;;;;;;;;25.90;44.00;;;;;;5040613;28;19983;-69
2022/09/02 14:26:31;;;;;;;;;;;26.00;43.40;;;;;;5041134;28;19933;-69
2022/09/02 14:28:57;;;;;;;;;;;26.00;44.40;;;;;;5038778;28;19932;-68
2022/09/02 14:31:25;;;;;;;;;;;26.10;43.10;;;;;;5041840;28;19999;-68
2022/09/02 14:33:52;;;;;;;;;;;26.10;43.60;;;;;;5042494;28;19948;-69